sensor_id;sensor_type;location;lat;lon;timestamp;P1;durP1;ratioP1;P2;durP2;ratioP2
25263;SDS011;13211;51.796;5.808;2023-09-08T00:00:00;11.05;;;6.50;;
25263;SDS011;13211;51.796;5.808;2023-09-08T00:02:32;12.98;;;6.13;;
25263;SDS011;13211;51.796;5.808;2023-09-08T00:05:05;10.20;;;6.65;;
25263;SDS011;13211;51.796;5.808;2023-09-08T00:07:32;9.60;;;6.80;;
25263;SDS011;13211;51.796;5.808;2023-09-08T00:10:00;10.15;;;6.40;;
25263;SDS011;13211;51.796;5.808;2023-09-08T00:12:27;10.68;;;6.40;;
25263;SDS011;13211;51.796;5.808;2023-09-08T00:15:00;12.95;;;6.80;;
25263;SDS011;13211;51.796;5.808;2023-09-08T00:17:27;17.08;;;7.13;;
25263;SDS011;13211;51.796;5.808;2023-09-08T00:19:59;10.85;;;7.13;;
25263;SDS011;13211;51.796;5.808;2023-09-08T00:22:26;11.13;;;7.57;;
25263;SDS011;13211;51.796;5.808;2023-09-08T00:24:54;13.18;;;6.70;;
25263;SDS011;13211;51.796;5.808;2023-09-08T00:27:21;12.38;;;6.55;;
25263;SDS011;13211;51.796;5.808;2023-09-08T00:29:49;9.05;;;6.32;;
25263;SDS011;13211;51.796;5.808;2023-09-08T00:32:20;8.80;;;6.63;;
25263;SDS011;13211;51.796;5.808;2023-09-08T00:34:48;8.88;;;6.50;;
25263;SDS011;13211;51.796;5.808;2023-09-08T00:37:16;10.98;;;7.15;;
25263;SDS011;13211;51.796;5.808;2023-09-08T00:39:43;8.25;;;6.03;;
25263;SDS011;13211;51.796;5.808;2023-09-08T00:42:11;8.85;;;6.35;;
25263;SDS011;13211;51.796;5.808;2023-09-08T00:44:39;9.85;;;5.68;;
25263;SDS011;13211;51.796;5.808;2023-09-08T00:47:07;9.30;;;5.50;;
25263;SDS011;13211;51.796;5.808;2023-09-08T00:49:34;9.70;;;6.47;;
25263;SDS011;13211;51.796;5.808;2023-09-08T00:52:02;10.25;;;6.47;;
25263;SDS011;13211;51.796;5.808;2023-09-08T00:54:30;8.60;;;5.72;;
25263;SDS011;13211;51.796;5.808;2023-09-08T00:57:04;10.15;;;5.88;;
25263;SDS011;13211;51.796;5.808;2023-09-08T00:59:32;8.60;;;6.10;;
25263;SDS011;13211;51.796;5.808;2023-09-08T01:02:00;11.57;;;6.03;;
25263;SDS011;13211;51.796;5.808;2023-09-08T01:04:31;12.18;;;6.22;;
25263;SDS011;13211;51.796;5.808;2023-09-08T01:07:00;12.23;;;6.80;;
25263;SDS011;13211;51.796;5.808;2023-09-08T01:09:28;10.85;;;6.32;;
25263;SDS011;13211;51.796;5.808;2023-09-08T01:11:57;9.65;;;6.53;;
25263;SDS011;13211;51.796;5.808;2023-09-08T01:14:29;10.60;;;6.45;;
25263;SDS011;13211;51.796;5.808;2023-09-08T01:16:57;13.45;;;6.35;;
25263;SDS011;13211;51.796;5.808;2023-09-08T01:19:25;17.63;;;7.63;;
25263;SDS011;13211;51.796;5.808;2023-09-08T01:27:25;10.20;;;6.97;;
25263;SDS011;13211;51.796;5.808;2023-09-08T01:29:55;10.65;;;6.82;;
25263;SDS011;13211;51.796;5.808;2023-09-08T01:32:23;12.02;;;7.90;;
25263;SDS011;13211;51.796;5.808;2023-09-08T01:34:51;11.48;;;6.45;;
25263;SDS011;13211;51.796;5.808;2023-09-08T01:37:25;10.63;;;6.25;;
25263;SDS011;13211;51.796;5.808;2023-09-08T01:39:53;10.40;;;6.90;;
25263;SDS011;13211;51.796;5.808;2023-09-08T01:42:20;12.07;;;7.00;;
25263;SDS011;13211;51.796;5.808;2023-09-08T01:44:49;11.30;;;7.07;;
25263;SDS011;13211;51.796;5.808;2023-09-08T01:47:22;12.38;;;6.88;;
25263;SDS011;13211;51.796;5.808;2023-09-08T01:49:52;11.18;;;6.93;;
25263;SDS011;13211;51.796;5.808;2023-09-08T01:52:19;9.35;;;6.78;;
25263;SDS011;13211;51.796;5.808;2023-09-08T01:54:47;15.40;;;7.53;;
25263;SDS011;13211;51.796;5.808;2023-09-08T01:57:19;14.40;;;6.93;;
25263;SDS011;13211;51.796;5.808;2023-09-08T01:59:46;12.00;;;7.10;;
25263;SDS011;13211;51.796;5.808;2023-09-08T02:02:17;13.02;;;6.72;;
25263;SDS011;13211;51.796;5.808;2023-09-08T02:04:44;13.98;;;7.07;;
25263;SDS011;13211;51.796;5.808;2023-09-08T02:07:12;11.27;;;7.18;;
25263;SDS011;13211;51.796;5.808;2023-09-08T02:09:40;14.18;;;7.10;;
25263;SDS011;13211;51.796;5.808;2023-09-08T02:12:08;10.18;;;6.82;;
25263;SDS011;13211;51.796;5.808;2023-09-08T02:14:36;10.77;;;7.15;;
25263;SDS011;13211;51.796;5.808;2023-09-08T02:17:04;17.52;;;7.63;;
25263;SDS011;13211;51.796;5.808;2023-09-08T02:19:33;15.25;;;8.20;;
25263;SDS011;13211;51.796;5.808;2023-09-08T02:22:06;11.55;;;7.03;;
25263;SDS011;13211;51.796;5.808;2023-09-08T02:27:01;17.55;;;8.38;;
25263;SDS011;13211;51.796;5.808;2023-09-08T02:29:30;14.80;;;8.55;;
25263;SDS011;13211;51.796;5.808;2023-09-08T02:32:00;13.05;;;8.63;;
25263;SDS011;13211;51.796;5.808;2023-09-08T02:34:33;14.05;;;9.02;;
25263;SDS011;13211;51.796;5.808;2023-09-08T02:37:04;11.23;;;8.25;;
25263;SDS011;13211;51.796;5.808;2023-09-08T02:39:33;16.60;;;9.10;;
25263;SDS011;13211;51.796;5.808;2023-09-08T02:42:05;16.42;;;9.40;;
25263;SDS011;13211;51.796;5.808;2023-09-08T02:44:33;13.85;;;8.90;;
25263;SDS011;13211;51.796;5.808;2023-09-08T02:49:34;12.85;;;8.38;;
25263;SDS011;13211;51.796;5.808;2023-09-08T02:52:02;11.68;;;7.40;;
25263;SDS011;13211;51.796;5.808;2023-09-08T02:54:31;11.50;;;7.68;;
25263;SDS011;13211;51.796;5.808;2023-09-08T02:56:59;11.63;;;7.45;;
25263;SDS011;13211;51.796;5.808;2023-09-08T02:59:27;14.23;;;7.40;;
25263;SDS011;13211;51.796;5.808;2023-09-08T03:01:54;10.05;;;7.63;;
25263;SDS011;13211;51.796;5.808;2023-09-08T03:04:23;13.45;;;8.80;;
25263;SDS011;13211;51.796;5.808;2023-09-08T03:06:51;13.15;;;8.65;;
25263;SDS011;13211;51.796;5.808;2023-09-08T03:09:20;11.80;;;7.63;;
25263;SDS011;13211;51.796;5.808;2023-09-08T03:11:48;13.68;;;7.43;;
25263;SDS011;13211;51.796;5.808;2023-09-08T03:14:15;12.93;;;7.65;;
25263;SDS011;13211;51.796;5.808;2023-09-08T03:16:44;14.15;;;7.25;;
25263;SDS011;13211;51.796;5.808;2023-09-08T03:19:17;13.52;;;8.38;;
25263;SDS011;13211;51.796;5.808;2023-09-08T03:21:44;12.23;;;7.82;;
25263;SDS011;13211;51.796;5.808;2023-09-08T03:24:11;15.18;;;8.20;;
25263;SDS011;13211;51.796;5.808;2023-09-08T03:26:39;14.48;;;8.73;;
25263;SDS011;13211;51.796;5.808;2023-09-08T03:29:07;11.95;;;8.07;;
25263;SDS011;13211;51.796;5.808;2023-09-08T03:31:38;13.02;;;7.93;;
25263;SDS011;13211;51.796;5.808;2023-09-08T03:34:37;14.68;;;8.35;;
25263;SDS011;13211;51.796;5.808;2023-09-08T03:37:07;13.13;;;8.52;;
25263;SDS011;13211;51.796;5.808;2023-09-08T03:39:37;12.57;;;7.82;;
25263;SDS011;13211;51.796;5.808;2023-09-08T03:42:04;13.23;;;7.95;;
25263;SDS011;13211;51.796;5.808;2023-09-08T03:44:32;11.98;;;8.80;;
25263;SDS011;13211;51.796;5.808;2023-09-08T03:46:59;12.57;;;8.50;;
25263;SDS011;13211;51.796;5.808;2023-09-08T03:51:57;13.82;;;8.18;;
25263;SDS011;13211;51.796;5.808;2023-09-08T03:54:25;16.63;;;9.05;;
25263;SDS011;13211;51.796;5.808;2023-09-08T03:56:54;16.15;;;9.27;;
25263;SDS011;13211;51.796;5.808;2023-09-08T03:59:26;16.00;;;8.98;;
25263;SDS011;13211;51.796;5.808;2023-09-08T04:01:54;12.35;;;8.35;;
25263;SDS011;13211;51.796;5.808;2023-09-08T04:04:22;12.90;;;8.55;;
25263;SDS011;13211;51.796;5.808;2023-09-08T04:06:50;13.05;;;8.40;;
25263;SDS011;13211;51.796;5.808;2023-09-08T04:09:17;14.95;;;9.30;;
25263;SDS011;13211;51.796;5.808;2023-09-08T04:11:45;15.68;;;8.90;;
25263;SDS011;13211;51.796;5.808;2023-09-08T04:14:12;15.02;;;9.05;;
25263;SDS011;13211;51.796;5.808;2023-09-08T04:16:40;15.80;;;9.52;;
25263;SDS011;13211;51.796;5.808;2023-09-08T04:19:08;14.85;;;10.10;;
25263;SDS011;13211;51.796;5.808;2023-09-08T04:21:35;16.58;;;9.13;;
25263;SDS011;13211;51.796;5.808;2023-09-08T04:24:05;12.52;;;9.50;;
25263;SDS011;13211;51.796;5.808;2023-09-08T04:26:34;14.43;;;9.63;;
25263;SDS011;13211;51.796;5.808;2023-09-08T04:29:02;13.40;;;9.00;;
25263;SDS011;13211;51.796;5.808;2023-09-08T04:31:30;12.15;;;8.80;;
25263;SDS011;13211;51.796;5.808;2023-09-08T04:34:01;15.90;;;10.23;;
25263;SDS011;13211;51.796;5.808;2023-09-08T04:36:29;18.33;;;10.05;;
25263;SDS011;13211;51.796;5.808;2023-09-08T04:38:57;18.90;;;10.05;;
25263;SDS011;13211;51.796;5.808;2023-09-08T04:41:24;12.52;;;9.20;;
25263;SDS011;13211;51.796;5.808;2023-09-08T04:43:53;16.80;;;9.90;;
25263;SDS011;13211;51.796;5.808;2023-09-08T04:46:22;14.13;;;9.40;;
25263;SDS011;13211;51.796;5.808;2023-09-08T04:48:50;19.65;;;9.98;;
25263;SDS011;13211;51.796;5.808;2023-09-08T04:51:22;19.60;;;9.10;;
25263;SDS011;13211;51.796;5.808;2023-09-08T04:53:49;23.38;;;9.93;;
25263;SDS011;13211;51.796;5.808;2023-09-08T04:56:18;19.02;;;9.68;;
25263;SDS011;13211;51.796;5.808;2023-09-08T04:58:46;16.08;;;9.52;;
25263;SDS011;13211;51.796;5.808;2023-09-08T05:01:14;14.32;;;9.63;;
25263;SDS011;13211;51.796;5.808;2023-09-08T05:03:42;24.77;;;10.60;;
25263;SDS011;13211;51.796;5.808;2023-09-08T05:06:13;17.40;;;10.07;;
25263;SDS011;13211;51.796;5.808;2023-09-08T05:11:17;15.35;;;9.52;;
25263;SDS011;13211;51.796;5.808;2023-09-08T05:13:49;19.38;;;9.45;;
25263;SDS011;13211;51.796;5.808;2023-09-08T05:16:17;18.65;;;9.10;;
25263;SDS011;13211;51.796;5.808;2023-09-08T05:18:51;16.95;;;8.73;;
25263;SDS011;13211;51.796;5.808;2023-09-08T05:21:21;14.68;;;9.13;;
25263;SDS011;13211;51.796;5.808;2023-09-08T05:23:49;22.63;;;10.18;;
25263;SDS011;13211;51.796;5.808;2023-09-08T05:26:17;14.50;;;9.43;;
25263;SDS011;13211;51.796;5.808;2023-09-08T05:28:44;25.52;;;9.85;;
25263;SDS011;13211;51.796;5.808;2023-09-08T05:31:13;17.98;;;9.45;;
25263;SDS011;13211;51.796;5.808;2023-09-08T05:33:41;14.73;;;9.05;;
25263;SDS011;13211;51.796;5.808;2023-09-08T05:36:10;21.15;;;10.68;;
25263;SDS011;13211;51.796;5.808;2023-09-08T05:38:42;15.05;;;9.35;;
25263;SDS011;13211;51.796;5.808;2023-09-08T05:41:10;11.57;;;8.60;;
25263;SDS011;13211;51.796;5.808;2023-09-08T05:43:38;18.38;;;9.63;;
25263;SDS011;13211;51.796;5.808;2023-09-08T05:46:06;30.30;;;10.05;;
25263;SDS011;13211;51.796;5.808;2023-09-08T05:48:35;16.85;;;10.27;;
25263;SDS011;13211;51.796;5.808;2023-09-08T05:51:09;20.17;;;10.40;;
25263;SDS011;13211;51.796;5.808;2023-09-08T05:53:37;17.80;;;10.70;;
25263;SDS011;13211;51.796;5.808;2023-09-08T05:56:10;22.65;;;10.73;;
25263;SDS011;13211;51.796;5.808;2023-09-08T05:58:40;19.23;;;10.88;;
25263;SDS011;13211;51.796;5.808;2023-09-08T06:01:09;16.45;;;11.02;;
25263;SDS011;13211;51.796;5.808;2023-09-08T06:03:46;18.05;;;10.77;;
25263;SDS011;13211;51.796;5.808;2023-09-08T06:06:15;18.75;;;10.98;;
25263;SDS011;13211;51.796;5.808;2023-09-08T06:08:43;19.13;;;11.65;;
25263;SDS011;13211;51.796;5.808;2023-09-08T06:11:13;20.92;;;11.57;;
25263;SDS011;13211;51.796;5.808;2023-09-08T06:13:42;16.58;;;10.90;;
25263;SDS011;13211;51.796;5.808;2023-09-08T06:16:10;19.10;;;11.45;;
25263;SDS011;13211;51.796;5.808;2023-09-08T06:18:38;18.33;;;11.60;;
25263;SDS011;13211;51.796;5.808;2023-09-08T06:21:19;17.38;;;12.13;;
25263;SDS011;13211;51.796;5.808;2023-09-08T06:23:47;19.25;;;12.20;;
25263;SDS011;13211;51.796;5.808;2023-09-08T06:26:16;26.05;;;13.45;;
25263;SDS011;13211;51.796;5.808;2023-09-08T06:28:45;32.47;;;12.20;;
25263;SDS011;13211;51.796;5.808;2023-09-08T06:31:14;19.15;;;11.77;;
25263;SDS011;13211;51.796;5.808;2023-09-08T06:33:48;22.27;;;12.23;;
25263;SDS011;13211;51.796;5.808;2023-09-08T06:36:21;15.98;;;11.70;;
25263;SDS011;13211;51.796;5.808;2023-09-08T06:38:50;23.85;;;12.15;;
25263;SDS011;13211;51.796;5.808;2023-09-08T06:41:19;20.13;;;12.02;;
25263;SDS011;13211;51.796;5.808;2023-09-08T06:43:47;17.60;;;11.63;;
25263;SDS011;13211;51.796;5.808;2023-09-08T06:46:20;20.20;;;12.60;;
25263;SDS011;13211;51.796;5.808;2023-09-08T06:48:51;18.38;;;12.63;;
25263;SDS011;13211;51.796;5.808;2023-09-08T06:51:19;25.48;;;12.70;;
25263;SDS011;13211;51.796;5.808;2023-09-08T06:53:54;19.35;;;12.38;;
25263;SDS011;13211;51.796;5.808;2023-09-08T06:56:26;17.63;;;12.18;;
25263;SDS011;13211;51.796;5.808;2023-09-08T06:58:56;17.50;;;11.50;;
25263;SDS011;13211;51.796;5.808;2023-09-08T07:01:31;20.40;;;11.35;;
25263;SDS011;13211;51.796;5.808;2023-09-08T07:03:59;21.85;;;12.25;;
25263;SDS011;13211;51.796;5.808;2023-09-08T07:06:28;19.70;;;11.85;;
25263;SDS011;13211;51.796;5.808;2023-09-08T07:08:56;23.95;;;11.88;;
25263;SDS011;13211;51.796;5.808;2023-09-08T07:11:24;19.08;;;11.98;;
25263;SDS011;13211;51.796;5.808;2023-09-08T07:13:56;19.35;;;11.80;;
25263;SDS011;13211;51.796;5.808;2023-09-08T07:16:24;22.98;;;12.43;;
25263;SDS011;13211;51.796;5.808;2023-09-08T07:18:52;24.15;;;12.43;;
25263;SDS011;13211;51.796;5.808;2023-09-08T07:21:19;20.33;;;13.05;;
25263;SDS011;13211;51.796;5.808;2023-09-08T07:23:58;15.32;;;11.60;;
25263;SDS011;13211;51.796;5.808;2023-09-08T07:26:28;19.65;;;12.10;;
25263;SDS011;13211;51.796;5.808;2023-09-08T07:28:56;20.92;;;12.57;;
25263;SDS011;13211;51.796;5.808;2023-09-08T07:31:24;23.58;;;12.48;;
25263;SDS011;13211;51.796;5.808;2023-09-08T07:33:52;22.95;;;12.82;;
25263;SDS011;13211;51.796;5.808;2023-09-08T07:36:20;24.27;;;12.65;;
25263;SDS011;13211;51.796;5.808;2023-09-08T07:38:48;20.30;;;11.82;;
25263;SDS011;13211;51.796;5.808;2023-09-08T07:41:15;24.23;;;12.80;;
25263;SDS011;13211;51.796;5.808;2023-09-08T07:43:44;17.63;;;11.35;;
25263;SDS011;13211;51.796;5.808;2023-09-08T07:46:16;20.15;;;12.20;;
25263;SDS011;13211;51.796;5.808;2023-09-08T07:48:44;24.40;;;11.90;;
25263;SDS011;13211;51.796;5.808;2023-09-08T07:51:12;22.67;;;12.50;;
25263;SDS011;13211;51.796;5.808;2023-09-08T07:53:40;20.55;;;11.90;;
25263;SDS011;13211;51.796;5.808;2023-09-08T07:56:08;20.90;;;12.27;;
25263;SDS011;13211;51.796;5.808;2023-09-08T07:58:36;18.63;;;11.75;;
25263;SDS011;13211;51.796;5.808;2023-09-08T08:01:09;19.38;;;11.77;;
25263;SDS011;13211;51.796;5.808;2023-09-08T08:03:39;20.42;;;11.48;;
25263;SDS011;13211;51.796;5.808;2023-09-08T08:06:09;19.00;;;11.82;;
25263;SDS011;13211;51.796;5.808;2023-09-08T08:08:44;22.88;;;11.60;;
25263;SDS011;13211;51.796;5.808;2023-09-08T08:11:12;22.38;;;11.38;;
25263;SDS011;13211;51.796;5.808;2023-09-08T08:13:40;20.23;;;11.40;;
25263;SDS011;13211;51.796;5.808;2023-09-08T08:16:08;18.73;;;11.88;;
25263;SDS011;13211;51.796;5.808;2023-09-08T08:18:36;23.52;;;11.77;;
25263;SDS011;13211;51.796;5.808;2023-09-08T08:21:04;17.52;;;11.95;;
25263;SDS011;13211;51.796;5.808;2023-09-08T08:23:32;24.98;;;11.90;;
25263;SDS011;13211;51.796;5.808;2023-09-08T08:26:01;19.33;;;11.23;;
25263;SDS011;13211;51.796;5.808;2023-09-08T08:28:29;20.25;;;11.73;;
25263;SDS011;13211;51.796;5.808;2023-09-08T08:30:57;20.98;;;11.27;;
25263;SDS011;13211;51.796;5.808;2023-09-08T08:33:25;20.92;;;11.80;;
25263;SDS011;13211;51.796;5.808;2023-09-08T08:35:53;18.23;;;11.30;;
25263;SDS011;13211;51.796;5.808;2023-09-08T08:38:21;20.38;;;10.40;;
25263;SDS011;13211;51.796;5.808;2023-09-08T08:40:52;24.02;;;11.27;;
25263;SDS011;13211;51.796;5.808;2023-09-08T08:43:20;16.70;;;11.20;;
25263;SDS011;13211;51.796;5.808;2023-09-08T08:45:49;20.38;;;11.02;;
25263;SDS011;13211;51.796;5.808;2023-09-08T08:48:18;19.15;;;10.82;;
25263;SDS011;13211;51.796;5.808;2023-09-08T08:50:47;18.27;;;9.85;;
25263;SDS011;13211;51.796;5.808;2023-09-08T08:53:16;17.70;;;10.13;;
25263;SDS011;13211;51.796;5.808;2023-09-08T08:55:44;17.80;;;10.30;;
25263;SDS011;13211;51.796;5.808;2023-09-08T08:58:13;16.73;;;9.27;;
25263;SDS011;13211;51.796;5.808;2023-09-08T09:00:41;15.35;;;9.23;;
25263;SDS011;13211;51.796;5.808;2023-09-08T09:03:16;17.73;;;9.30;;
25263;SDS011;13211;51.796;5.808;2023-09-08T09:05:44;16.73;;;8.63;;
25263;SDS011;13211;51.796;5.808;2023-09-08T09:08:17;16.13;;;9.55;;
25263;SDS011;13211;51.796;5.808;2023-09-08T09:10:45;17.88;;;10.18;;
25263;SDS011;13211;51.796;5.808;2023-09-08T09:13:12;16.73;;;8.93;;
25263;SDS011;13211;51.796;5.808;2023-09-08T09:15:40;18.10;;;9.60;;
25263;SDS011;13211;51.796;5.808;2023-09-08T09:18:13;13.70;;;8.88;;
25263;SDS011;13211;51.796;5.808;2023-09-08T09:20:41;18.40;;;7.72;;
25263;SDS011;13211;51.796;5.808;2023-09-08T09:25:42;18.60;;;8.13;;
25263;SDS011;13211;51.796;5.808;2023-09-08T09:28:12;13.88;;;6.95;;
25263;SDS011;13211;51.796;5.808;2023-09-08T09:30:47;12.48;;;6.90;;
25263;SDS011;13211;51.796;5.808;2023-09-08T09:33:18;16.02;;;6.80;;
25263;SDS011;13211;51.796;5.808;2023-09-08T09:35:49;12.48;;;6.78;;
25263;SDS011;13211;51.796;5.808;2023-09-08T09:38:26;17.13;;;6.40;;
25263;SDS011;13211;51.796;5.808;2023-09-08T09:40:57;10.57;;;6.18;;
25263;SDS011;13211;51.796;5.808;2023-09-08T09:43:30;14.80;;;7.18;;
25263;SDS011;13211;51.796;5.808;2023-09-08T09:46:02;9.57;;;6.28;;
25263;SDS011;13211;51.796;5.808;2023-09-08T09:48:29;12.75;;;6.28;;
25263;SDS011;13211;51.796;5.808;2023-09-08T09:50:57;11.20;;;6.78;;
25263;SDS011;13211;51.796;5.808;2023-09-08T09:53:25;13.05;;;5.93;;
25263;SDS011;13211;51.796;5.808;2023-09-08T09:55:53;12.98;;;6.53;;
25263;SDS011;13211;51.796;5.808;2023-09-08T09:58:21;14.55;;;7.28;;
25263;SDS011;13211;51.796;5.808;2023-09-08T10:00:49;17.15;;;6.50;;
25263;SDS011;13211;51.796;5.808;2023-09-08T10:03:17;12.05;;;5.97;;
25263;SDS011;13211;51.796;5.808;2023-09-08T10:05:46;8.38;;;5.38;;
25263;SDS011;13211;51.796;5.808;2023-09-08T10:08:16;9.90;;;6.80;;
25263;SDS011;13211;51.796;5.808;2023-09-08T10:10:44;11.48;;;6.40;;
25263;SDS011;13211;51.796;5.808;2023-09-08T10:13:18;8.30;;;5.37;;
25263;SDS011;13211;51.796;5.808;2023-09-08T10:15:48;9.90;;;7.05;;
25263;SDS011;13211;51.796;5.808;2023-09-08T10:18:20;10.10;;;6.23;;
25263;SDS011;13211;51.796;5.808;2023-09-08T10:20:48;8.52;;;5.40;;
25263;SDS011;13211;51.796;5.808;2023-09-08T10:23:20;10.15;;;5.95;;
25263;SDS011;13211;51.796;5.808;2023-09-08T10:25:52;11.35;;;6.45;;
25263;SDS011;13211;51.796;5.808;2023-09-08T10:28:21;8.60;;;5.43;;
25263;SDS011;13211;51.796;5.808;2023-09-08T10:30:49;11.55;;;5.80;;
25263;SDS011;13211;51.796;5.808;2023-09-08T10:33:18;11.65;;;5.90;;
25263;SDS011;13211;51.796;5.808;2023-09-08T10:35:46;8.55;;;5.65;;
25263;SDS011;13211;51.796;5.808;2023-09-08T10:40:51;11.15;;;6.90;;
25263;SDS011;13211;51.796;5.808;2023-09-08T10:43:19;9.98;;;6.18;;
25263;SDS011;13211;51.796;5.808;2023-09-08T10:45:47;13.05;;;5.43;;
25263;SDS011;13211;51.796;5.808;2023-09-08T10:48:15;10.55;;;5.80;;
25263;SDS011;13211;51.796;5.808;2023-09-08T10:50:47;13.65;;;6.78;;
25263;SDS011;13211;51.796;5.808;2023-09-08T10:53:20;15.10;;;7.05;;
25263;SDS011;13211;51.796;5.808;2023-09-08T10:55:49;10.38;;;6.13;;
25263;SDS011;13211;51.796;5.808;2023-09-08T10:58:33;11.10;;;5.63;;
25263;SDS011;13211;51.796;5.808;2023-09-08T11:01:06;8.32;;;5.20;;
25263;SDS011;13211;51.796;5.808;2023-09-08T11:06:05;12.40;;;6.18;;
25263;SDS011;13211;51.796;5.808;2023-09-08T11:11:05;10.75;;;5.60;;
25263;SDS011;13211;51.796;5.808;2023-09-08T11:13:33;12.70;;;7.10;;
25263;SDS011;13211;51.796;5.808;2023-09-08T11:16:08;11.38;;;6.40;;
25263;SDS011;13211;51.796;5.808;2023-09-08T11:18:36;13.18;;;6.10;;
25263;SDS011;13211;51.796;5.808;2023-09-08T11:21:08;9.57;;;5.90;;
25263;SDS011;13211;51.796;5.808;2023-09-08T11:23:36;9.48;;;5.53;;
25263;SDS011;13211;51.796;5.808;2023-09-08T11:26:03;12.05;;;5.75;;
25263;SDS011;13211;51.796;5.808;2023-09-08T11:28:37;12.43;;;6.30;;
25263;SDS011;13211;51.796;5.808;2023-09-08T11:31:08;15.52;;;6.40;;
25263;SDS011;13211;51.796;5.808;2023-09-08T11:33:39;10.43;;;5.82;;
25263;SDS011;13211;51.796;5.808;2023-09-08T11:38:45;17.00;;;6.57;;
25263;SDS011;13211;51.796;5.808;2023-09-08T11:41:12;8.63;;;6.60;;
25263;SDS011;13211;51.796;5.808;2023-09-08T11:43:40;10.55;;;6.28;;
25263;SDS011;13211;51.796;5.808;2023-09-08T11:46:08;9.27;;;5.22;;
25263;SDS011;13211;51.796;5.808;2023-09-08T11:48:37;8.32;;;5.03;;
25263;SDS011;13211;51.796;5.808;2023-09-08T11:51:08;7.47;;;5.40;;
25263;SDS011;13211;51.796;5.808;2023-09-08T11:53:35;9.77;;;5.63;;
25263;SDS011;13211;51.796;5.808;2023-09-08T11:56:04;7.80;;;4.50;;
25263;SDS011;13211;51.796;5.808;2023-09-08T11:58:32;11.50;;;5.13;;
25263;SDS011;13211;51.796;5.808;2023-09-08T12:01:01;8.52;;;4.85;;
25263;SDS011;13211;51.796;5.808;2023-09-08T12:03:30;9.07;;;5.15;;
25263;SDS011;13211;51.796;5.808;2023-09-08T12:05:58;10.98;;;5.05;;
25263;SDS011;13211;51.796;5.808;2023-09-08T12:08:27;8.77;;;5.30;;
25263;SDS011;13211;51.796;5.808;2023-09-08T12:10:54;6.88;;;4.53;;
25263;SDS011;13211;51.796;5.808;2023-09-08T12:13:22;11.15;;;5.55;;
25263;SDS011;13211;51.796;5.808;2023-09-08T12:15:50;11.88;;;4.65;;
25263;SDS011;13211;51.796;5.808;2023-09-08T12:18:36;7.07;;;4.70;;
25263;SDS011;13211;51.796;5.808;2023-09-08T12:21:04;12.88;;;5.20;;
25263;SDS011;13211;51.796;5.808;2023-09-08T12:23:32;9.38;;;4.55;;
25263;SDS011;13211;51.796;5.808;2023-09-08T12:26:00;5.47;;;4.00;;
25263;SDS011;13211;51.796;5.808;2023-09-08T12:28:30;7.07;;;4.15;;
25263;SDS011;13211;51.796;5.808;2023-09-08T12:31:01;12.35;;;5.40;;
25263;SDS011;13211;51.796;5.808;2023-09-08T12:33:29;6.85;;;3.80;;
25263;SDS011;13211;51.796;5.808;2023-09-08T12:35:56;11.02;;;4.88;;
25263;SDS011;13211;51.796;5.808;2023-09-08T12:38:30;5.60;;;3.78;;
25263;SDS011;13211;51.796;5.808;2023-09-08T12:40:59;6.55;;;4.20;;
25263;SDS011;13211;51.796;5.808;2023-09-08T12:43:27;10.57;;;4.60;;
25263;SDS011;13211;51.796;5.808;2023-09-08T12:48:24;8.45;;;4.63;;
25263;SDS011;13211;51.796;5.808;2023-09-08T12:50:52;10.48;;;4.00;;
25263;SDS011;13211;51.796;5.808;2023-09-08T12:53:22;8.07;;;5.03;;
25263;SDS011;13211;51.796;5.808;2023-09-08T12:55:52;8.07;;;4.95;;
25263;SDS011;13211;51.796;5.808;2023-09-08T12:58:20;7.68;;;4.35;;
25263;SDS011;13211;51.796;5.808;2023-09-08T13:00:48;7.03;;;4.80;;
25263;SDS011;13211;51.796;5.808;2023-09-08T13:03:16;9.20;;;4.97;;
25263;SDS011;13211;51.796;5.808;2023-09-08T13:05:44;9.25;;;4.47;;
25263;SDS011;13211;51.796;5.808;2023-09-08T13:08:18;10.25;;;4.38;;
25263;SDS011;13211;51.796;5.808;2023-09-08T13:10:54;8.90;;;4.63;;
25263;SDS011;13211;51.796;5.808;2023-09-08T13:13:22;14.60;;;4.68;;
25263;SDS011;13211;51.796;5.808;2023-09-08T13:15:50;12.00;;;4.25;;
25263;SDS011;13211;51.796;5.808;2023-09-08T13:18:17;7.70;;;4.43;;
25263;SDS011;13211;51.796;5.808;2023-09-08T13:20:48;7.72;;;4.10;;
25263;SDS011;13211;51.796;5.808;2023-09-08T13:23:17;10.18;;;4.68;;
25263;SDS011;13211;51.796;5.808;2023-09-08T13:25:53;6.32;;;4.05;;
25263;SDS011;13211;51.796;5.808;2023-09-08T13:28:20;9.63;;;4.15;;
25263;SDS011;13211;51.796;5.808;2023-09-08T13:30:53;7.72;;;4.13;;
25263;SDS011;13211;51.796;5.808;2023-09-08T13:33:29;9.30;;;4.15;;
25263;SDS011;13211;51.796;5.808;2023-09-08T13:35:57;7.93;;;3.80;;
25263;SDS011;13211;51.796;5.808;2023-09-08T13:38:25;10.40;;;3.75;;
25263;SDS011;13211;51.796;5.808;2023-09-08T13:40:53;6.32;;;3.88;;
25263;SDS011;13211;51.796;5.808;2023-09-08T13:43:20;8.82;;;4.00;;
25263;SDS011;13211;51.796;5.808;2023-09-08T13:45:49;10.90;;;3.90;;
25263;SDS011;13211;51.796;5.808;2023-09-08T13:48:20;7.95;;;3.75;;
25263;SDS011;13211;51.796;5.808;2023-09-08T13:50:51;9.93;;;3.95;;
25263;SDS011;13211;51.796;5.808;2023-09-08T13:53:21;6.53;;;3.58;;
25263;SDS011;13211;51.796;5.808;2023-09-08T13:56:07;6.90;;;4.10;;
25263;SDS011;13211;51.796;5.808;2023-09-08T13:58:44;5.60;;;3.60;;
25263;SDS011;13211;51.796;5.808;2023-09-08T14:01:28;6.72;;;3.80;;
25263;SDS011;13211;51.796;5.808;2023-09-08T14:04:07;6.63;;;4.05;;
25263;SDS011;13211;51.796;5.808;2023-09-08T14:07:09;7.13;;;3.90;;
25263;SDS011;13211;51.796;5.808;2023-09-08T14:09:41;9.98;;;3.90;;
25263;SDS011;13211;51.796;5.808;2023-09-08T14:12:21;10.93;;;3.67;;
25263;SDS011;13211;51.796;5.808;2023-09-08T14:14:59;8.23;;;4.03;;
25263;SDS011;13211;51.796;5.808;2023-09-08T14:17:33;7.03;;;3.38;;
25263;SDS011;13211;51.796;5.808;2023-09-08T14:20:02;9.00;;;4.03;;
25263;SDS011;13211;51.796;5.808;2023-09-08T14:22:31;8.05;;;4.07;;
25263;SDS011;13211;51.796;5.808;2023-09-08T14:25:04;7.45;;;3.95;;
25263;SDS011;13211;51.796;5.808;2023-09-08T14:27:34;8.23;;;4.13;;
25263;SDS011;13211;51.796;5.808;2023-09-08T14:30:04;8.77;;;4.38;;
25263;SDS011;13211;51.796;5.808;2023-09-08T14:32:36;14.77;;;4.20;;
25263;SDS011;13211;51.796;5.808;2023-09-08T14:35:04;8.32;;;3.97;;
25263;SDS011;13211;51.796;5.808;2023-09-08T14:37:34;9.02;;;3.75;;
25263;SDS011;13211;51.796;5.808;2023-09-08T14:40:01;6.30;;;3.78;;
25263;SDS011;13211;51.796;5.808;2023-09-08T14:42:32;9.50;;;4.30;;
25263;SDS011;13211;51.796;5.808;2023-09-08T14:45:01;7.95;;;3.65;;
25263;SDS011;13211;51.796;5.808;2023-09-08T14:47:29;8.77;;;3.80;;
25263;SDS011;13211;51.796;5.808;2023-09-08T14:49:58;12.48;;;3.80;;
25263;SDS011;13211;51.796;5.808;2023-09-08T14:52:26;6.70;;;4.10;;
25263;SDS011;13211;51.796;5.808;2023-09-08T14:54:54;6.43;;;3.70;;
25263;SDS011;13211;51.796;5.808;2023-09-08T14:57:26;8.15;;;4.30;;
25263;SDS011;13211;51.796;5.808;2023-09-08T14:59:54;8.50;;;3.83;;
25263;SDS011;13211;51.796;5.808;2023-09-08T15:02:22;9.75;;;3.90;;
25263;SDS011;13211;51.796;5.808;2023-09-08T15:04:50;8.75;;;4.00;;
25263;SDS011;13211;51.796;5.808;2023-09-08T15:07:18;7.63;;;4.18;;
25263;SDS011;13211;51.796;5.808;2023-09-08T15:09:46;6.65;;;4.10;;
25263;SDS011;13211;51.796;5.808;2023-09-08T15:12:13;7.28;;;3.92;;
25263;SDS011;13211;51.796;5.808;2023-09-08T15:14:41;7.68;;;4.00;;
25263;SDS011;13211;51.796;5.808;2023-09-08T15:17:10;6.05;;;3.97;;
25263;SDS011;13211;51.796;5.808;2023-09-08T15:19:39;7.35;;;4.28;;